Time;durP1;ratioP1;P1;durP2;ratioP2;P2;SDS_P1;SDS_P2;PMS_P1;PMS_P2;Temp;Humidity;BMP_temperature;BMP_pressure;BME280_temperature;BME280_humidity;BME280_pressure;Samples;Min_cycle;Max_cycle;Signal;HPM_P1;HPM_P2
2022/01/30 00:00:06;;;;;;;23.30;3.83;;;5.60;99.90;;;;;;5056514;28;20044;-65
2022/01/30 00:02:32;;;;;;;21.55;3.22;;;5.40;99.90;;;;;;5064268;28;20039;-68
2022/01/30 00:04:58;;;;;;;15.38;3.45;;;5.30;99.90;;;;;;5049527;28;20052;-65
2022/01/30 00:07:23;;;;;;;19.35;3.40;;;5.20;99.90;;;;;;5037153;28;20072;-66
2022/01/30 00:09:50;;;;;;;20.60;3.70;;;5.20;99.90;;;;;;5050642;28;20037;-66
2022/01/30 00:12:18;;;;;;;19.15;3.58;;;5.10;99.90;;;;;;5052073;28;20456;-65
2022/01/30 00:14:44;;;;;;;21.85;3.70;;;5.00;99.90;;;;;;5071756;28;20049;-64
2022/01/30 00:17:19;;;;;;;20.63;3.20;;;5.00;99.90;;;;;;5050809;28;20533;-66
2022/01/30 00:19:51;;;;;;;16.52;2.75;;;4.90;99.90;;;;;;5055743;28;20041;-66
2022/01/30 00:24:49;;;;;;;13.85;2.78;;;4.90;99.90;;;;;;5052433;28;20113;-65
2022/01/30 00:27:19;;;;;;;22.67;3.70;;;4.80;99.90;;;;;;5052705;28;20048;-65
2022/01/30 00:29:45;;;;;;;22.27;3.80;;;4.90;99.90;;;;;;5052626;28;20063;-65
2022/01/30 00:32:10;;;;;;;18.38;3.35;;;4.90;99.90;;;;;;5052066;28;20392;-63
2022/01/30 00:34:36;;;;;;;18.65;3.50;;;5.00;99.90;;;;;;5050519;28;20051;-65
2022/01/30 00:37:03;;;;;;;20.00;3.38;;;5.10;99.90;;;;;;5051498;28;20757;-64
2022/01/30 00:39:29;;;;;;;25.40;3.60;;;5.20;99.90;;;;;;5052765;28;20480;-64
2022/01/30 00:41:55;;;;;;;20.45;3.53;;;5.40;99.90;;;;;;5050513;28;20076;-63
2022/01/30 00:44:20;;;;;;;26.08;3.63;;;5.50;99.90;;;;;;5052594;28;20141;-65
2022/01/30 00:46:46;;;;;;;26.02;4.03;;;5.60;99.90;;;;;;5051306;28;20064;-65
2022/01/30 00:49:13;;;;;;;21.67;3.53;;;5.70;99.90;;;;;;5050543;28;20472;-65
2022/01/30 00:51:38;;;;;;;23.55;3.78;;;5.60;99.90;;;;;;5070886;28;20036;-64
2022/01/30 00:54:05;;;;;;;20.83;3.40;;;5.60;99.90;;;;;;5053499;28;20130;-64
2022/01/30 00:56:31;;;;;;;21.30;3.80;;;5.60;99.90;;;;;;5050440;28;20404;-65
2022/01/30 00:58:56;;;;;;;25.35;3.63;;;5.60;99.90;;;;;;5050579;28;20136;-66
2022/01/30 01:01:22;;;;;;;23.30;3.17;;;5.70;99.90;;;;;;5068536;28;20535;-65
2022/01/30 01:03:48;;;;;;;19.10;3.20;;;5.80;99.90;;;;;;5053147;28;20048;-66
2022/01/30 01:06:14;;;;;;;20.73;3.53;;;5.80;99.90;;;;;;5051498;28;20045;-66
2022/01/30 01:09:14;;;;;;;21.92;3.53;;;5.80;99.90;;;;;;5062250;28;20040;-65
2022/01/30 01:12:08;;;;;;;22.58;3.78;;;5.70;99.90;;;;;;5044937;28;20045;-64
2022/01/30 01:25:17;;;;;;;15.52;2.65;;;5.20;99.90;;;;;;5051725;28;20479;-63
2022/01/30 01:27:43;;;;;;;20.70;3.70;;;5.20;99.90;;;;;;5049082;28;20037;-64
2022/01/30 01:30:09;;;;;;;15.30;2.42;;;5.10;99.90;;;;;;5045898;28;20060;-65
2022/01/30 01:32:35;;;;;;;18.27;3.20;;;5.10;99.90;;;;;;5049984;28;20040;-66
2022/01/30 01:35:00;;;;;;;13.85;3.25;;;5.10;99.90;;;;;;5046672;28;20050;-65
2022/01/30 01:37:26;;;;;;;20.48;3.25;;;5.00;99.90;;;;;;5051382;28;20040;-64
2022/01/30 01:39:52;;;;;;;23.20;4.00;;;5.00;99.90;;;;;;5051253;28;20032;-64
2022/01/30 01:42:17;;;;;;;17.38;3.00;;;4.90;99.90;;;;;;5058980;28;20097;-63
2022/01/30 01:44:55;;;;;;;20.58;3.40;;;4.90;99.90;;;;;;5052533;28;20034;-64
2022/01/30 01:47:22;;;;;;;17.75;3.33;;;4.90;99.90;;;;;;5024322;28;20033;-66
2022/01/30 01:49:51;;;;;;;14.52;3.35;;;5.00;99.90;;;;;;5033338;28;20188;-63
2022/01/30 01:54:44;;;;;;;22.15;3.50;;;5.10;99.90;;;;;;5051556;28;20044;-64
2022/01/30 01:57:10;;;;;;;20.45;4.07;;;5.20;99.90;;;;;;5068513;28;20052;-65
2022/01/30 01:59:37;;;;;;;22.25;3.78;;;5.20;99.90;;;;;;5035448;28;20032;-64
2022/01/30 02:02:03;;;;;;;20.80;4.40;;;5.20;99.90;;;;;;5050724;28;20207;-65
2022/01/30 02:04:29;;;;;;;26.63;4.22;;;5.20;99.90;;;;;;5051211;28;20044;-64
2022/01/30 02:07:17;;;;;;;17.40;3.90;;;5.00;99.90;;;;;;5050935;28;20334;-66
2022/01/30 02:09:42;;;;;;;28.63;4.60;;;4.90;99.90;;;;;;5047584;28;20086;-65
2022/01/30 02:12:17;;;;;;;28.42;4.32;;;4.80;99.90;;;;;;5047103;28;20127;-64
2022/01/30 02:15:10;;;;;;;29.25;4.60;;;4.70;99.90;;;;;;5054029;28;20108;-64
2022/01/30 02:25:46;;;;;;;19.23;2.97;;;4.60;99.90;;;;;;5056905;28;20425;-65
2022/01/30 02:28:15;;;;;;;20.65;4.00;;;4.60;99.90;;;;;;5048893;28;20061;-65
2022/01/30 02:31:19;;;;;;;21.42;3.13;;;4.60;99.90;;;;;;5041737;28;20131;-64
2022/01/30 02:33:34;;;;;;;26.25;5.32;;;4.60;99.90;;;;;;5040641;28;20048;-65
2022/01/30 02:36:00;;;;;;;16.85;3.70;;;4.70;99.90;;;;;;5053947;28;20055;-64
2022/01/30 02:38:26;;;;;;;26.20;3.90;;;4.80;99.90;;;;;;5050105;28;20543;-65
2022/01/30 02:40:55;;;;;;;26.42;4.35;;;4.80;99.90;;;;;;5049316;28;20032;-65
2022/01/30 02:43:26;;;;;;;26.10;4.53;;;4.90;99.90;;;;;;5050080;28;20150;-65
2022/01/30 02:46:05;;;;;;;24.92;4.05;;;4.90;99.90;;;;;;5080319;28;20539;-66
2022/01/30 02:48:50;;;;;;;17.48;3.38;;;4.90;99.90;;;;;;5033145;28;20040;-64
2022/01/30 02:51:18;;;;;;;24.15;3.92;;;4.90;99.90;;;;;;5064132;28;20054;-65
2022/01/30 02:53:47;;;;;;;19.30;3.65;;;4.90;99.90;;;;;;5066739;28;20075;-64
2022/01/30 02:56:12;;;;;;;21.08;4.25;;;4.90;99.90;;;;;;5045309;28;20373;-63
2022/01/30 02:58:38;;;;;;;23.20;3.92;;;4.90;99.90;;;;;;5066110;28;20037;-64
2022/01/30 03:01:04;;;;;;;22.52;3.78;;;4.90;99.90;;;;;;5048003;28;20044;-63
2022/01/30 03:03:29;;;;;;;27.40;4.38;;;4.90;99.90;;;;;;5044797;28;20053;-64
2022/01/30 03:05:55;;;;;;;25.67;4.55;;;4.90;99.90;;;;;;5047644;28;20029;-64
2022/01/30 03:08:20;;;;;;;22.27;3.63;;;4.90;99.90;;;;;;5066935;28;20040;-64
2022/01/30 03:10:46;;;;;;;26.55;4.53;;;4.90;99.90;;;;;;5034043;28;20041;-67
2022/01/30 03:13:11;;;;;;;19.88;4.15;;;4.90;99.90;;;;;;5041575;28;20465;-65
2022/01/30 03:15:37;;;;;;;26.60;4.45;;;5.00;99.90;;;;;;5052267;28;20527;-64
2022/01/30 03:18:02;;;;;;;25.80;4.80;;;5.00;99.90;;;;;;5043247;28;20061;-65
2022/01/30 03:20:28;;;;;;;28.83;4.82;;;5.00;99.90;;;;;;5035162;28;20096;-64
2022/01/30 03:22:55;;;;;;;34.03;5.05;;;5.00;99.90;;;;;;5033341;28;20045;-63
2022/01/30 03:25:20;;;;;;;32.13;5.20;;;4.90;99.90;;;;;;5050810;28;20029;-64
2022/01/30 03:27:51;;;;;;;28.85;4.82;;;4.80;99.90;;;;;;5050380;28;20044;-64
2022/01/30 03:30:25;;;;;;;24.20;4.97;;;4.80;99.90;;;;;;5034811;28;20056;-63
2022/01/30 03:32:51;;;;;;;29.77;4.60;;;4.70;99.90;;;;;;5033614;28;20141;-63
2022/01/30 03:35:17;;;;;;;24.35;4.60;;;4.80;99.90;;;;;;5049129;28;20504;-64
2022/01/30 03:37:42;;;;;;;22.58;4.72;;;4.80;99.90;;;;;;5053979;28;20071;-64
2022/01/30 03:40:08;;;;;;;26.05;5.03;;;4.80;99.90;;;;;;5048381;28;20041;-64
2022/01/30 03:42:34;;;;;;;31.40;4.95;;;4.90;99.90;;;;;;5049758;28;20527;-64
2022/01/30 03:44:59;;;;;;;29.42;4.07;;;4.90;99.90;;;;;;5050482;28;20049;-64
2022/01/30 03:47:26;;;;;;;31.65;5.93;;;5.00;99.90;;;;;;5070282;28;20067;-65
2022/01/30 03:49:53;;;;;;;31.05;4.97;;;5.00;99.90;;;;;;5046998;28;20438;-64
2022/01/30 03:52:18;;;;;;;21.85;4.35;;;5.00;99.90;;;;;;5049307;28;20033;-64
2022/01/30 03:54:44;;;;;;;21.17;4.22;;;5.10;99.90;;;;;;5047331;28;20044;-66
2022/01/30 03:57:09;;;;;;;26.95;5.20;;;5.10;99.90;;;;;;5032968;28;20041;-64
2022/01/30 03:59:35;;;;;;;26.70;4.93;;;5.10;99.90;;;;;;5062541;28;20130;-64
2022/01/30 04:02:01;;;;;;;30.83;4.68;;;5.10;99.90;;;;;;5064673;28;20029;-63
2022/01/30 04:04:27;;;;;;;28.83;4.75;;;5.20;99.90;;;;;;5045784;28;20068;-65
2022/01/30 04:06:57;;;;;;;26.27;4.32;;;5.30;99.90;;;;;;5048303;28;20040;-65
2022/01/30 04:09:23;;;;;;;34.78;5.25;;;5.30;99.90;;;;;;5040114;28;20055;-63
2022/01/30 04:11:49;;;;;;;28.15;5.05;;;5.40;99.90;;;;;;5033137;28;20040;-65
2022/01/30 04:14:15;;;;;;;31.80;5.32;;;5.40;99.90;;;;;;5045923;28;20089;-66
2022/01/30 04:16:40;;;;;;;37.67;5.40;;;5.50;99.90;;;;;;5047365;28;20048;-64
2022/01/30 04:19:06;;;;;;;24.67;4.10;;;5.50;99.90;;;;;;5049250;28;20048;-67
2022/01/30 04:21:32;;;;;;;26.13;4.93;;;5.50;99.90;;;;;;5050681;28;20036;-64
2022/01/30 04:23:57;;;;;;;26.05;4.40;;;5.60;99.90;;;;;;5047401;28;20448;-67
2022/01/30 04:26:23;;;;;;;30.65;5.15;;;5.60;99.90;;;;;;5050092;28;20067;-68
2022/01/30 04:28:48;;;;;;;28.67;5.13;;;5.50;99.90;;;;;;5044911;28;20072;-66
2022/01/30 04:31:14;;;;;;;33.35;4.65;;;5.50;99.90;;;;;;5035931;28;20476;-67
2022/01/30 04:33:40;;;;;;;27.20;5.50;;;5.40;99.90;;;;;;5047512;28;20265;-66
2022/01/30 04:36:09;;;;;;;35.65;6.70;;;5.40;99.90;;;;;;5036392;28;20076;-65
2022/01/30 04:41:37;;;;;;;44.20;6.22;;;5.20;99.90;;;;;;5067461;28;20069;-65
2022/01/30 05:00:25;;;;;;;33.25;6.32;;;5.00;99.90;;;;;;5050052;28;20566;-65
2022/01/30 05:08:02;;;;;;;33.83;6.47;;;5.10;99.90;;;;;;5068261;28;20056;-65
2022/01/30 05:10:28;;;;;;;33.88;5.28;;;5.10;99.90;;;;;;5069664;28;20056;-65
2022/01/30 05:12:57;;;;;;;32.38;6.00;;;5.10;99.90;;;;;;5048038;28;20045;-65
2022/01/30 05:15:26;;;;;;;39.33;6.00;;;5.10;99.90;;;;;;5051423;28;20044;-65
2022/01/30 05:17:52;;;;;;;34.47;5.32;;;5.10;99.90;;;;;;5049973;28;20420;-65
2022/01/30 05:20:17;;;;;;;34.47;6.90;;;5.10;99.90;;;;;;5070435;28;20040;-65
2022/01/30 05:22:44;;;;;;;29.00;6.05;;;5.20;99.90;;;;;;5051644;28;20097;-65
2022/01/30 05:25:10;;;;;;;33.10;5.85;;;5.20;99.90;;;;;;5051799;28;20098;-64
2022/01/30 05:27:36;;;;;;;37.13;6.50;;;5.20;99.90;;;;;;5034567;28;20047;-64
2022/01/30 05:30:03;;;;;;;39.53;7.10;;;5.20;99.90;;;;;;5066215;28;20113;-63
2022/01/30 05:32:29;;;;;;;36.40;5.82;;;5.30;99.90;;;;;;5049095;28;20037;-63
2022/01/30 05:34:55;;;;;;;33.28;5.72;;;5.30;99.90;;;;;;5026819;28;20068;-64
2022/01/30 05:37:22;;;;;;;28.50;6.70;;;5.30;99.90;;;;;;5049021;28;20350;-65
2022/01/30 05:39:48;;;;;;;39.15;6.30;;;5.30;99.90;;;;;;5031279;28;20045;-65
2022/01/30 05:42:14;;;;;;;31.60;6.25;;;5.20;99.90;;;;;;5024076;28;20353;-65
2022/01/30 05:47:24;;;;;;;34.75;6.75;;;5.20;99.90;;;;;;5032192;28;20132;-63
2022/01/30 05:49:50;;;;;;;31.17;5.82;;;5.30;99.90;;;;;;5027323;28;20048;-65
2022/01/30 05:52:15;;;;;;;36.78;6.70;;;5.20;99.90;;;;;;5019349;28;20028;-64
2022/01/30 05:54:41;;;;;;;38.75;5.82;;;5.20;99.90;;;;;;5032853;28;20370;-63
2022/01/30 05:57:07;;;;;;;35.90;5.82;;;5.10;99.90;;;;;;5046461;28;20034;-64
2022/01/30 05:59:32;;;;;;;39.28;6.38;;;5.10;99.90;;;;;;5028418;28;20045;-64
2022/01/30 06:01:58;;;;;;;34.13;7.38;;;5.10;99.90;;;;;;5028756;28;20076;-64
2022/01/30 06:04:23;;;;;;;34.95;6.22;;;5.20;99.90;;;;;;5013743;28;20045;-64
2022/01/30 06:06:51;;;;;;;36.60;6.40;;;5.20;99.90;;;;;;5030193;28;20607;-64
2022/01/30 06:11:43;;;;;;;29.60;5.20;;;5.30;99.90;;;;;;5030687;28;20056;-64
2022/01/30 06:14:09;;;;;;;32.72;5.55;;;5.20;99.90;;;;;;5029649;28;20043;-65
2022/01/30 06:16:35;;;;;;;38.35;7.05;;;5.30;99.90;;;;;;5031918;28;20036;-66
2022/01/30 06:19:01;;;;;;;38.45;6.70;;;5.40;99.90;;;;;;5012093;28;20048;-66
2022/01/30 06:21:27;;;;;;;39.22;6.18;;;5.40;99.90;;;;;;5030445;28;20041;-67
2022/01/30 06:23:53;;;;;;;32.67;6.22;;;5.30;99.90;;;;;;5028947;28;20033;-65
2022/01/30 06:26:18;;;;;;;32.88;6.00;;;5.30;99.90;;;;;;5030871;28;20107;-67
2022/01/30 06:28:44;;;;;;;38.40;6.38;;;5.20;99.90;;;;;;5029043;28;20556;-64
2022/01/30 06:31:10;;;;;;;39.60;5.45;;;5.20;99.90;;;;;;5047711;28;20040;-67
2022/01/30 06:33:35;;;;;;;42.75;6.55;;;5.10;99.90;;;;;;5047116;28;20502;-64
2022/01/30 06:36:01;;;;;;;31.00;5.95;;;5.00;99.90;;;;;;5052951;28;20044;-65
2022/01/30 06:38:26;;;;;;;47.50;6.63;;;5.00;99.90;;;;;;5086397;28;20051;-65
2022/01/30 06:40:52;;;;;;;33.63;5.75;;;5.00;99.90;;;;;;5054953;28;20040;-65
2022/01/30 06:43:17;;;;;;;31.80;6.90;;;5.00;99.90;;;;;;5068971;28;20032;-64
2022/01/30 06:45:43;;;;;;;49.35;7.55;;;5.00;99.90;;;;;;5054721;28;20044;-64
2022/01/30 06:48:09;;;;;;;39.25;8.25;;;5.00;99.90;;;;;;5087661;28;20043;-65
2022/01/30 06:50:35;;;;;;;35.40;7.07;;;5.00;99.90;;;;;;5071147;28;20035;-67
2022/01/30 06:53:00;;;;;;;33.92;6.45;;;5.00;99.90;;;;;;5066375;28;20528;-66
2022/01/30 06:55:26;;;;;;;43.00;7.13;;;5.00;99.90;;;;;;5074005;28;20055;-65
2022/01/30 06:57:51;;;;;;;38.42;6.40;;;5.00;99.90;;;;;;5068476;28;20052;-66
2022/01/30 07:00:17;;;;;;;33.42;6.32;;;5.10;99.90;;;;;;5069527;28;20123;-66
2022/01/30 07:02:43;;;;;;;27.27;6.13;;;5.10;99.90;;;;;;5068379;28;20043;-66
2022/01/30 07:05:09;;;;;;;35.33;6.30;;;5.10;99.90;;;;;;5068874;28;20119;-65
2022/01/30 07:07:34;;;;;;;42.80;6.40;;;5.10;99.90;;;;;;5069781;28;20047;-65
2022/01/30 07:10:01;;;;;;;35.83;5.95;;;5.20;99.90;;;;;;5069722;28;20044;-66
2022/01/30 07:12:26;;;;;;;33.72;5.82;;;5.20;99.90;;;;;;5051493;28;20051;-66
2022/01/30 07:14:52;;;;;;;33.80;5.47;;;5.20;99.90;;;;;;5070720;28;20044;-66
2022/01/30 07:17:18;;;;;;;26.38;5.45;;;5.30;99.90;;;;;;5068118;28;20149;-65
2022/01/30 07:19:43;;;;;;;33.00;5.93;;;5.30;99.90;;;;;;5068763;28;20032;-66
2022/01/30 07:22:09;;;;;;;51.53;8.18;;;5.30;99.90;;;;;;5070141;28;20127;-65
2022/01/30 07:24:35;;;;;;;39.83;6.88;;;5.40;99.90;;;;;;5082995;28;20055;-64
2022/01/30 07:27:00;;;;;;;28.23;5.90;;;5.40;99.90;;;;;;5064175;28;20089;-65
2022/01/30 07:29:26;;;;;;;39.15;6.38;;;5.40;99.90;;;;;;5070627;28;20058;-67
2022/01/30 07:31:51;;;;;;;40.53;7.20;;;5.40;99.90;;;;;;5053419;28;20127;-66
2022/01/30 07:34:19;;;;;;;37.55;6.40;;;5.40;99.90;;;;;;5069710;28;20063;-66
2022/01/30 07:36:46;;;;;;;33.28;6.50;;;5.40;99.90;;;;;;5054713;28;20040;-67
2022/01/30 07:39:12;;;;;;;37.42;6.70;;;5.40;99.90;;;;;;5067839;28;20048;-66
2022/01/30 07:41:38;;;;;;;31.17;6.05;;;5.40;99.90;;;;;;5055003;28;20099;-65
2022/01/30 07:44:04;;;;;;;40.17;6.45;;;5.40;99.90;;;;;;5070892;28;20505;-66
2022/01/30 07:46:30;;;;;;;50.70;7.53;;;5.40;99.90;;;;;;5070737;28;20093;-65
2022/01/30 07:48:56;;;;;;;32.45;6.38;;;5.40;99.90;;;;;;5068897;28;20032;-64
2022/01/30 07:51:22;;;;;;;38.25;6.75;;;5.40;99.90;;;;;;5069830;28;20084;-65
2022/01/30 07:53:48;;;;;;;31.35;6.03;;;5.50;99.90;;;;;;5069447;28;20425;-65
2022/01/30 07:56:14;;;;;;;40.20;6.70;;;5.50;99.90;;;;;;5070187;28;20094;-65
2022/01/30 07:58:39;;;;;;;33.50;6.28;;;5.50;99.90;;;;;;5087265;28;20036;-65
2022/01/30 08:01:05;;;;;;;35.95;5.50;;;5.50;99.90;;;;;;5069739;28;20077;-65
2022/01/30 08:03:31;;;;;;;32.47;6.85;;;5.50;99.90;;;;;;5067731;28;20163;-64
2022/01/30 08:05:57;;;;;;;31.60;5.68;;;5.60;99.90;;;;;;5069958;28;20480;-64
2022/01/30 08:08:22;;;;;;;33.28;5.18;;;5.60;99.90;;;;;;5056527;28;20040;-66
2022/01/30 08:10:48;;;;;;;30.10;4.68;;;5.60;99.90;;;;;;5086659;28;20545;-66
2022/01/30 08:13:15;;;;;;;23.05;4.13;;;5.60;99.90;;;;;;5058544;28;20040;-67
2022/01/30 08:15:41;;;;;;;30.52;5.22;;;5.60;97.20;;;;;;5093714;28;20400;-65
2022/01/30 08:18:07;;;;;;;32.55;5.38;;;5.60;99.90;;;;;;5056743;28;20488;-66
2022/01/30 08:20:33;;;;;;;25.23;5.55;;;5.60;99.00;;;;;;5075006;28;20032;-65
2022/01/30 08:23:00;;;;;;;21.80;4.63;;;5.50;99.90;;;;;;5074398;28;20127;-65
2022/01/30 08:25:26;;;;;;;36.65;4.78;;;5.50;99.90;;;;;;5074630;28;20040;-65
2022/01/30 08:27:53;;;;;;;29.05;4.75;;;5.60;99.90;;;;;;5074438;28;20036;-66
2022/01/30 08:30:20;;;;;;;30.98;4.95;;;5.60;99.00;;;;;;5067449;28;20064;-65
2022/01/30 08:32:48;;;;;;;32.35;6.10;;;5.60;99.90;;;;;;5086616;28;20173;-67
2022/01/30 08:35:16;;;;;;;32.38;6.85;;;5.70;97.90;;;;;;5073506;28;20116;-66
2022/01/30 08:37:42;;;;;;;30.00;5.78;;;5.70;99.90;;;;;;5056112;28;20067;-64
2022/01/30 08:40:15;;;;;;;30.80;5.05;;;5.70;99.30;;;;;;5072494;28;20853;-64
2022/01/30 08:42:41;;;;;;;31.25;5.75;;;5.70;96.70;;;;;;5072433;28;20036;-64
2022/01/30 08:45:11;;;;;;;26.52;6.13;;;5.80;99.90;;;;;;5072780;28;20040;-64
2022/01/30 08:47:37;;;;;;;32.28;6.85;;;5.80;99.90;;;;;;5073188;28;20108;-65
2022/01/30 08:50:05;;;;;;;31.52;5.68;;;5.80;99.90;;;;;;5056818;28;20417;-65
2022/01/30 08:52:31;;;;;;;29.58;5.90;;;5.80;99.80;;;;;;5086786;28;20039;-65
2022/01/30 08:54:56;;;;;;;26.20;4.80;;;5.80;99.90;;;;;;5050966;28;20046;-65
2022/01/30 08:57:22;;;;;;;32.90;5.90;;;5.70;99.90;;;;;;5068315;28;20112;-67
2022/01/30 08:59:48;;;;;;;37.55;5.80;;;5.70;99.90;;;;;;5068012;28;20035;-64
2022/01/30 09:02:13;;;;;;;31.40;5.60;;;5.70;99.90;;;;;;5072596;28;20035;-65
2022/01/30 09:04:39;;;;;;;28.88;5.65;;;5.60;99.90;;;;;;5059124;28;20080;-65
2022/01/30 09:07:05;;;;;;;38.72;6.03;;;5.70;99.90;;;;;;5071817;28;20036;-64
2022/01/30 09:09:30;;;;;;;34.63;6.72;;;5.90;99.90;;;;;;5053159;28;20387;-65
2022/01/30 09:12:02;;;;;;;34.83;6.80;;;6.10;99.90;;;;;;5056198;28;20088;-65
2022/01/30 09:14:29;;;;;;;34.65;5.93;;;6.30;99.90;;;;;;5072908;28;20052;-66
2022/01/30 09:16:55;;;;;;;31.85;5.32;;;6.40;99.90;;;;;;5078150;28;20159;-64
2022/01/30 09:19:21;;;;;;;32.08;5.88;;;6.50;99.90;;;;;;5062647;28;20129;-65
2022/01/30 09:21:47;;;;;;;32.78;6.30;;;6.60;99.60;;;;;;5079124;28;20513;-65
2022/01/30 09:24:15;;;;;;;38.65;5.55;;;6.50;99.90;;;;;;5077904;28;20036;-66
2022/01/30 09:26:41;;;;;;;38.95;6.18;;;6.40;95.90;;;;;;5087221;28;20060;-64
2022/01/30 09:29:07;;;;;;;40.35;7.03;;;6.30;99.10;;;;;;5083901;28;20059;-65
2022/01/30 09:31:32;;;;;;;33.47;6.20;;;6.30;99.30;;;;;;5049679;28;20043;-64
2022/01/30 09:33:58;;;;;;;30.02;5.45;;;6.30;99.90;;;;;;5069773;28;20036;-65
2022/01/30 09:36:23;;;;;;;40.00;6.55;;;6.30;99.90;;;;;;5058890;28;20187;-66
2022/01/30 09:38:50;;;;;;;32.53;5.90;;;6.30;99.70;;;;;;5062232;28;20067;-67
2022/01/30 09:41:16;;;;;;;34.08;5.32;;;6.50;99.90;;;;;;5064790;28;20196;-67
2022/01/30 09:43:44;;;;;;;37.85;6.28;;;6.70;98.40;;;;;;5080328;28;20040;-67
2022/01/30 09:46:10;;;;;;;35.67;6.13;;;6.70;96.60;;;;;;5068386;28;20123;-65
2022/01/30 09:48:37;;;;;;;30.80;6.30;;;6.70;97.80;;;;;;5067456;28;20185;-65
2022/01/30 09:51:05;;;;;;;34.03;5.90;;;6.70;98.00;;;;;;5067313;28;20082;-65
2022/01/30 09:53:32;;;;;;;34.33;6.90;;;6.70;97.30;;;;;;5067178;28;20479;-64
2022/01/30 09:55:58;;;;;;;35.63;7.13;;;6.70;97.90;;;;;;5069752;28;20795;-66
2022/01/30 09:58:23;;;;;;;33.92;7.13;;;6.70;96.50;;;;;;5093887;28;20033;-64
2022/01/30 10:00:49;;;;;;;34.83;5.28;;;6.80;96.00;;;;;;5071407;28;20108;-66
2022/01/30 10:03:23;;;;;;;34.13;6.53;;;6.70;96.40;;;;;;5069018;28;20035;-66
2022/01/30 10:06:05;;;;;;;34.38;5.80;;;6.80;94.80;;;;;;5073245;28;20059;-64
2022/01/30 10:08:31;;;;;;;29.95;4.55;;;6.80;92.00;;;;;;5072261;28;20448;-66
2022/01/30 10:11:01;;;;;;;26.85;5.55;;;6.80;91.80;;;;;;5073446;28;20070;-66
2022/01/30 10:13:31;;;;;;;25.00;5.20;;;6.90;91.00;;;;;;5078778;28;20040;-66
2022/01/30 10:16:03;;;;;;;26.48;5.43;;;7.00;90.70;;;;;;5072934;28;20036;-64
2022/01/30 10:18:33;;;;;;;30.40;5.43;;;6.90;89.20;;;;;;5070914;28;20048;-64
2022/01/30 10:21:00;;;;;;;23.90;4.55;;;7.00;91.30;;;;;;5073238;28;20468;-65
2022/01/30 10:23:36;;;;;;;33.33;5.53;;;7.00;90.10;;;;;;5082386;28;20086;-66
2022/01/30 10:26:08;;;;;;;24.98;5.38;;;7.00;89.00;;;;;;5064048;28;20035;-64
2022/01/30 10:28:34;;;;;;;29.35;6.22;;;7.10;91.30;;;;;;5071935;28;20044;-65
2022/01/30 10:31:08;;;;;;;22.38;5.78;;;7.10;92.20;;;;;;5059158;28;20065;-65
2022/01/30 10:34:01;;;;;;;33.35;5.82;;;7.10;90.80;;;;;;5051246;28;20036;-65
2022/01/30 10:36:30;;;;;;;36.28;5.18;;;7.20;88.20;;;;;;5049822;28;20129;-65
2022/01/30 10:39:16;;;;;;;37.67;5.68;;;7.20;91.20;;;;;;5081410;28;20036;-65
2022/01/30 10:41:48;;;;;;;31.08;5.63;;;7.30;89.80;;;;;;5072844;28;20044;-64
2022/01/30 10:44:14;;;;;;;23.40;5.65;;;7.30;90.60;;;;;;5086045;28;20067;-67
2022/01/30 10:46:40;;;;;;;28.65;5.10;;;7.40;90.30;;;;;;5054975;28;20086;-65
2022/01/30 10:49:11;;;;;;;31.58;5.68;;;7.40;89.50;;;;;;5089607;28;20397;-65
2022/01/30 10:51:38;;;;;;;31.17;4.97;;;7.50;87.10;;;;;;5091083;28;20036;-65
2022/01/30 10:54:13;;;;;;;26.23;5.43;;;7.60;90.00;;;;;;5071421;28;20036;-67
2022/01/30 10:56:39;;;;;;;25.88;5.20;;;7.70;87.40;;;;;;5072042;28;20040;-68
2022/01/30 10:59:09;;;;;;;27.50;5.03;;;7.90;86.40;;;;;;5071432;28;20051;-65
2022/01/30 11:01:46;;;;;;;26.65;5.55;;;8.00;85.60;;;;;;5071122;28;20036;-67
2022/01/30 11:04:26;;;;;;;35.08;5.63;;;8.10;88.80;;;;;;5056491;28;20128;-66
2022/01/30 11:06:53;;;;;;;29.23;5.60;;;8.20;86.30;;;;;;5088421;28;20048;-66
2022/01/30 11:09:24;;;;;;;32.25;6.43;;;8.10;88.10;;;;;;5071743;28;20066;-67
2022/01/30 11:11:56;;;;;;;30.90;5.80;;;8.10;88.70;;;;;;5069696;28;20047;-66
2022/01/30 11:14:34;;;;;;;38.10;6.22;;;8.00;89.50;;;;;;5069444;28;20048;-64
2022/01/30 11:17:05;;;;;;;30.70;5.25;;;8.00;88.40;;;;;;5071469;28;20664;-65
2022/01/30 11:19:33;;;;;;;27.25;5.10;;;7.90;88.40;;;;;;5070300;28;20107;-66
2022/01/30 11:22:08;;;;;;;37.47;6.40;;;7.80;87.10;;;;;;5071593;28;20501;-65
2022/01/30 11:24:41;;;;;;;33.33;6.03;;;7.90;85.30;;;;;;5088166;28;20058;-64
2022/01/30 11:27:08;;;;;;;29.05;5.28;;;7.90;88.20;;;;;;5071136;28;20090;-64
2022/01/30 11:29:36;;;;;;;38.00;6.30;;;7.90;88.10;;;;;;5071394;28;20277;-67
2022/01/30 11:32:05;;;;;;;27.13;4.88;;;7.90;89.20;;;;;;5089105;28;20067;-65
2022/01/30 11:34:32;;;;;;;23.55;5.20;;;7.80;88.00;;;;;;5070023;28;20059;-64
2022/01/30 11:36:59;;;;;;;28.63;6.35;;;7.90;86.60;;;;;;5086211;28;20032;-64
2022/01/30 11:39:25;;;;;;;27.73;5.63;;;7.90;87.20;;;;;;5095134;28;20119;-66
2022/01/30 11:42:09;;;;;;;26.75;5.32;;;7.90;86.20;;;;;;5074603;28;20115;-64
2022/01/30 11:44:36;;;;;;;29.55;5.55;;;8.10;84.20;;;;;;5070999;28;20507;-64
2022/01/30 11:47:02;;;;;;;34.17;5.60;;;8.30;86.40;;;;;;5054019;28;20080;-64
2022/01/30 11:49:59;;;;;;;25.70;5.20;;;8.40;83.90;;;;;;5088914;28;20044;-64
2022/01/30 11:52:46;;;;;;;29.55;5.80;;;8.30;77.10;;;;;;5060915;28;20055;-65
2022/01/30 11:55:40;;;;;;;28.40;5.00;;;8.30;78.30;;;;;;5073778;28;20054;-65
2022/01/30 11:58:06;;;;;;;26.77;5.15;;;8.30;77.90;;;;;;5073068;28;20451;-65
2022/01/30 12:00:46;;;;;;;32.92;6.82;;;8.40;79.50;;;;;;5086502;28;20076;-64
2022/01/30 12:03:22;;;;;;;;;;;8.40;79.20;;;;;;5059997;28;20052;-66
2022/01/30 12:05:48;;;;;;;36.55;5.57;;;8.40;76.30;;;;;;5071629;28;19996;-62
2022/01/30 12:08:46;;;;;;;28.92;4.80;;;8.30;80.30;;;;;;5070027;28;20904;-64
2022/01/30 12:11:36;;;;;;;28.30;4.65;;;8.30;79.40;;;;;;5055522;28;20147;-64
2022/01/30 12:14:07;;;;;;;24.05;4.57;;;8.20;79.30;;;;;;5070188;28;20490;-64
2022/01/30 12:16:57;;;;;;;34.35;5.45;;;8.20;80.70;;;;;;5088695;28;20063;-63
2022/01/30 12:19:31;;;;;;;32.55;5.45;;;8.20;79.50;;;;;;5066078;28;20040;-65
2022/01/30 12:22:15;;;;;;;40.65;5.80;;;8.20;80.00;;;;;;5084516;28;20150;-66
2022/01/30 12:24:42;;;;;;;31.55;4.85;;;8.20;78.90;;;;;;5068748;28;20071;-66
2022/01/30 12:27:08;;;;;;;33.30;6.80;;;8.20;81.60;;;;;;5069144;28;20040;-63
2022/01/30 12:29:35;;;;;;;24.73;5.10;;;8.20;82.00;;;;;;5069020;28;20052;-65
2022/01/30 12:32:19;;;;;;;30.65;6.35;;;8.30;82.40;;;;;;5049215;28;20052;-65
2022/01/30 12:34:45;;;;;;;28.85;5.45;;;8.30;79.00;;;;;;5068217;28;20036;-65
2022/01/30 12:37:19;;;;;;;27.92;5.63;;;8.20;81.50;;;;;;5052463;28;20063;-65
2022/01/30 12:39:44;;;;;;;40.92;5.50;;;8.20;80.30;;;;;;5068645;28;20115;-64
2022/01/30 12:42:15;;;;;;;31.13;5.60;;;8.10;81.90;;;;;;5052482;28;20108;-66
2022/01/30 12:44:41;;;;;;;26.52;4.78;;;8.00;81.10;;;;;;5069421;28;20039;-65
2022/01/30 12:47:07;;;;;;;36.45;6.45;;;8.00;80.90;;;;;;5064162;28;20124;-63
2022/01/30 12:49:40;;;;;;;31.80;5.15;;;8.00;81.80;;;;;;5068285;28;20122;-64
2022/01/30 12:52:10;;;;;;;30.33;5.10;;;8.10;83.30;;;;;;5079105;28;20063;-66
2022/01/30 12:54:39;;;;;;;24.63;5.10;;;8.30;81.10;;;;;;5055385;28;20389;-65
2022/01/30 12:57:06;;;;;;;38.58;6.78;;;8.50;80.80;;;;;;5074838;28;20282;-63
2022/01/30 12:59:32;;;;;;;28.33;5.53;;;8.50;81.40;;;;;;5074341;28;20078;-63
2022/01/30 13:02:05;;;;;;;34.10;6.32;;;8.50;81.50;;;;;;5074029;28;20071;-65
2022/01/30 13:04:31;;;;;;;36.42;6.05;;;8.50;80.30;;;;;;5062389;28;20115;-66
2022/01/30 13:06:57;;;;;;;31.60;5.97;;;8.40;80.50;;;;;;5073246;28;20186;-64
2022/01/30 13:09:33;;;;;;;26.48;4.90;;;8.40;81.20;;;;;;5073771;28;20048;-64
2022/01/30 13:12:10;;;;;;;35.22;6.28;;;8.40;80.80;;;;;;5064728;28;20056;-65
2022/01/30 13:14:37;;;;;;;35.13;6.32;;;8.40;81.40;;;;;;5054521;28;20056;-66
2022/01/30 13:17:04;;;;;;;34.42;6.30;;;8.60;80.90;;;;;;5053668;28;20048;-63
2022/01/30 13:19:32;;;;;;;31.77;6.13;;;8.50;79.70;;;;;;5071448;28;20047;-65
2022/01/30 13:21:59;;;;;;;33.33;5.97;;;8.40;81.60;;;;;;5060944;28;20066;-63
2022/01/30 13:24:25;;;;;;;28.38;5.50;;;8.30;81.90;;;;;;5056797;28;20067;-65
2022/01/30 13:26:58;;;;;;;33.15;4.53;;;8.10;81.10;;;;;;5057229;28;20067;-65
2022/01/30 13:29:25;;;;;;;30.23;4.72;;;8.00;80.50;;;;;;5073816;28;20052;-66
2022/01/30 13:31:56;;;;;;;27.45;4.47;;;8.00;79.70;;;;;;5056926;28;20044;-67
2022/01/30 13:34:33;;;;;;;26.10;5.30;;;8.00;78.80;;;;;;5071848;28;20128;-63
2022/01/30 13:37:07;;;;;;;26.95;5.30;;;8.00;79.40;;;;;;5053957;28;20219;-64
2022/01/30 13:39:47;;;;;;;22.02;4.95;;;8.00;78.90;;;;;;5053270;28;20048;-64
2022/01/30 13:44:51;;;;;;;33.33;6.10;;;8.10;80.50;;;;;;5065272;28;20499;-66
2022/01/30 13:47:19;;;;;;;30.10;7.20;;;8.10;80.40;;;;;;5073239;28;20115;-65
2022/01/30 13:49:49;;;;;;;32.63;5.63;;;8.00;79.90;;;;;;5070647;28;20052;-65